createdAt,value
2022-10-10T00:00:06.178Z,0.40
2022-10-10T00:02:33.634Z,0.30
2022-10-10T00:05:01.128Z,0.47
2022-10-10T00:07:28.618Z,0.40
2022-10-10T00:09:56.056Z,0.40
2022-10-10T00:12:24.966Z,0.40
2022-10-10T00:14:52.471Z,0.40
2022-10-10T00:17:19.942Z,0.40
2022-10-10T00:19:47.394Z,0.50
2022-10-10T00:22:14.830Z,0.40
2022-10-10T00:24:42.316Z,0.40
2022-10-10T00:27:09.822Z,0.45
2022-10-10T00:29:38.626Z,0.40
2022-10-10T00:32:06.079Z,0.50
2022-10-10T00:34:33.545Z,0.50
2022-10-10T00:37:01.003Z,0.50
2022-10-10T00:39:28.548Z,0.50
2022-10-10T00:41:56.166Z,0.50
2022-10-10T00:44:23.775Z,0.50
2022-10-10T00:46:52.825Z,0.40
2022-10-10T00:49:23.623Z,0.50
2022-10-10T00:51:56.674Z,0.40
2022-10-10T00:54:25.874Z,0.40
2022-10-10T00:56:56.240Z,0.40
2022-10-10T00:59:24.567Z,0.40
2022-10-10T01:01:53.407Z,0.40
2022-10-10T01:04:32.719Z,0.40
2022-10-10T01:07:01.037Z,0.40
2022-10-10T01:09:29.915Z,0.40
2022-10-10T01:12:05.459Z,0.50
2022-10-10T01:14:42.178Z,0.50
2022-10-10T01:17:19.654Z,0.50
2022-10-10T01:20:16.866Z,0.40
2022-10-10T01:23:03.498Z,0.45
2022-10-10T01:25:34.060Z,0.50
2022-10-10T01:28:04.133Z,0.50
2022-10-10T01:30:35.553Z,0.50
2022-10-10T01:33:09.426Z,0.50
2022-10-10T01:35:49.252Z,0.40
2022-10-10T01:38:26.411Z,0.50
2022-10-10T01:41:01.572Z,0.60
2022-10-10T01:43:30.939Z,0.50
2022-10-10T01:45:59.795Z,0.50
2022-10-10T01:48:31.606Z,0.50
2022-10-10T01:51:20.560Z,0.60
2022-10-10T01:53:58.411Z,0.60
2022-10-10T01:56:36.272Z,0.50
2022-10-10T01:59:31.095Z,0.50
2022-10-10T02:02:07.240Z,0.50
2022-10-10T02:04:41.702Z,0.50
2022-10-10T02:07:15.775Z,0.50
2022-10-10T02:09:45.200Z,0.50
2022-10-10T02:12:13.954Z,0.50
2022-10-10T02:14:44.704Z,0.50
2022-10-10T02:17:16.411Z,0.50
2022-10-10T02:19:49.505Z,0.50
2022-10-10T02:22:17.939Z,0.57
2022-10-10T02:24:45.502Z,0.50
2022-10-10T02:27:24.736Z,0.60
2022-10-10T02:29:54.889Z,0.50
2022-10-10T02:32:29.811Z,0.60
2022-10-10T02:35:01.935Z,0.50
2022-10-10T02:37:31.599Z,0.50
2022-10-10T02:40:02.792Z,0.60
2022-10-10T02:42:31.082Z,0.60
2022-10-10T02:44:59.167Z,0.57
2022-10-10T02:47:28.317Z,0.50
2022-10-10T02:49:55.792Z,0.60
2022-10-10T02:52:23.572Z,0.50
2022-10-10T02:54:51.098Z,0.50
2022-10-10T02:57:18.531Z,0.50
2022-10-10T02:59:45.988Z,0.50
2022-10-10T03:02:13.499Z,0.50
2022-10-10T03:04:43.313Z,0.45
2022-10-10T03:07:10.797Z,0.50
2022-10-10T03:09:38.397Z,0.50
2022-10-10T03:12:06.225Z,0.50
2022-10-10T03:14:33.931Z,0.50
2022-10-10T03:17:01.424Z,0.50
2022-10-10T03:19:28.889Z,0.50
2022-10-10T03:21:57.663Z,0.50
2022-10-10T03:24:25.136Z,0.50
2022-10-10T03:26:52.579Z,0.50
2022-10-10T03:29:20.104Z,0.40
2022-10-10T03:31:47.744Z,0.50
2022-10-10T03:34:15.253Z,0.40
2022-10-10T03:36:42.772Z,0.50
2022-10-10T03:39:11.793Z,0.50
2022-10-10T03:41:39.263Z,0.50
2022-10-10T03:44:06.732Z,0.40
2022-10-10T03:46:34.177Z,0.40
2022-10-10T03:49:01.638Z,0.47
2022-10-10T03:51:29.110Z,0.40
2022-10-10T03:53:56.631Z,0.40
2022-10-10T03:56:25.445Z,0.40
2022-10-10T03:58:52.927Z,0.40
2022-10-10T04:01:20.507Z,0.50
2022-10-10T04:03:51.994Z,0.50
2022-10-10T04:06:20.009Z,0.50
2022-10-10T04:08:47.504Z,0.40
2022-10-10T04:11:15.163Z,0.50
2022-10-10T04:13:44.023Z,0.57
2022-10-10T04:16:11.533Z,0.43
2022-10-10T04:18:39.000Z,0.50
2022-10-10T04:21:07.376Z,0.60
2022-10-10T04:23:34.971Z,0.52
2022-10-10T04:26:02.531Z,0.40
2022-10-10T04:28:30.038Z,0.40
2022-10-10T04:30:58.878Z,0.50
2022-10-10T04:33:26.529Z,0.50
2022-10-10T04:35:53.983Z,0.50
2022-10-10T04:38:22.658Z,0.60
2022-10-10T04:40:50.831Z,0.50
2022-10-10T04:43:19.187Z,0.50
2022-10-10T04:45:47.042Z,0.50
2022-10-10T04:48:15.916Z,0.40
2022-10-10T04:50:43.607Z,0.40
2022-10-10T04:53:11.571Z,0.40
2022-10-10T04:55:39.025Z,0.38
2022-10-10T04:58:06.817Z,0.40
2022-10-10T05:00:34.296Z,0.40
2022-10-10T05:03:01.831Z,0.40
2022-10-10T05:05:30.639Z,0.40
2022-10-10T05:07:58.190Z,0.40
2022-10-10T05:10:26.160Z,0.40
2022-10-10T05:12:54.226Z,0.40
2022-10-10T05:15:22.677Z,0.50
2022-10-10T05:17:50.165Z,0.30
2022-10-10T05:20:17.694Z,0.40
2022-10-10T05:22:47.048Z,0.40
2022-10-10T05:25:14.581Z,0.40
2022-10-10T05:27:42.202Z,0.30
2022-10-10T05:30:10.329Z,0.40
2022-10-10T05:32:37.809Z,0.30
2022-10-10T05:35:06.162Z,0.40
2022-10-10T05:37:33.771Z,0.40
2022-10-10T05:40:02.637Z,0.47
2022-10-10T05:42:30.640Z,0.40
2022-10-10T05:44:58.207Z,0.30
2022-10-10T05:47:28.002Z,0.30
2022-10-10T05:49:55.725Z,0.30
2022-10-10T05:52:23.210Z,0.40
2022-10-10T05:54:50.675Z,0.40
2022-10-10T05:57:19.474Z,0.45
2022-10-10T05:59:47.236Z,0.40
2022-10-10T06:02:15.393Z,0.40
2022-10-10T06:04:43.065Z,0.40
2022-10-10T06:07:10.503Z,0.32
2022-10-10T06:09:38.168Z,0.38
2022-10-10T06:12:05.661Z,0.40
2022-10-10T06:14:34.625Z,0.32
2022-10-10T06:17:02.392Z,0.40
2022-10-10T06:19:29.978Z,0.40
2022-10-10T06:21:57.412Z,0.30
2022-10-10T06:24:24.875Z,0.30
2022-10-10T06:26:52.339Z,0.30
2022-10-10T06:29:19.822Z,0.40
2022-10-10T06:31:48.606Z,0.30
2022-10-10T06:34:16.036Z,0.40
2022-10-10T06:36:43.496Z,0.30
2022-10-10T06:39:10.934Z,0.32
2022-10-10T06:41:38.387Z,0.40
2022-10-10T06:44:05.852Z,0.32
2022-10-10T06:46:34.372Z,0.38
2022-10-10T06:49:03.545Z,0.60
2022-10-10T06:51:31.541Z,0.40
2022-10-10T06:53:59.831Z,0.30
2022-10-10T06:56:28.028Z,0.38
2022-10-10T06:58:56.179Z,0.40
2022-10-10T07:01:25.772Z,0.32
2022-10-10T07:03:53.502Z,0.50
2022-10-10T07:06:22.428Z,0.35
2022-10-10T07:08:49.892Z,0.30
2022-10-10T07:11:17.382Z,0.40
2022-10-10T07:13:44.800Z,0.40
2022-10-10T07:16:12.382Z,0.30
2022-10-10T07:18:39.841Z,0.40
2022-10-10T07:21:07.718Z,0.40
2022-10-10T07:23:36.906Z,0.40
2022-10-10T07:26:07.045Z,0.30
2022-10-10T07:28:35.205Z,0.30
2022-10-10T07:31:04.945Z,0.30
2022-10-10T07:33:33.346Z,0.40
2022-10-10T07:36:02.704Z,0.57
2022-10-10T07:38:30.209Z,0.40
2022-10-10T07:40:58.990Z,0.30
2022-10-10T07:43:26.430Z,0.30
2022-10-10T07:45:53.936Z,0.40
2022-10-10T07:48:21.587Z,0.40
2022-10-10T07:50:49.171Z,0.40
2022-10-10T07:53:16.635Z,0.50
2022-10-10T07:55:44.762Z,0.40
2022-10-10T07:58:14.048Z,0.40
2022-10-10T08:00:42.752Z,0.40
2022-10-10T08:03:12.216Z,0.50
2022-10-10T08:05:41.056Z,0.60
2022-10-10T08:08:08.543Z,0.45
2022-10-10T08:10:36.238Z,0.40
2022-10-10T08:13:03.744Z,0.47
2022-10-10T08:15:34.033Z,0.50
2022-10-10T08:18:01.726Z,0.60
2022-10-10T08:20:29.188Z,0.50
2022-10-10T08:22:56.837Z,0.40
2022-10-10T08:25:24.273Z,0.40
2022-10-10T08:27:51.770Z,0.43
2022-10-10T08:30:19.568Z,0.40
2022-10-10T08:32:48.941Z,0.40
2022-10-10T08:35:16.979Z,0.40
2022-10-10T08:37:44.461Z,0.50
2022-10-10T08:40:16.785Z,0.40
2022-10-10T08:42:52.502Z,0.40
2022-10-10T08:45:23.715Z,0.50
2022-10-10T08:47:57.091Z,0.40
2022-10-10T08:50:28.671Z,0.40
2022-10-10T08:53:00.638Z,0.40
2022-10-10T08:55:33.558Z,0.50
2022-10-10T08:58:07.394Z,0.40
2022-10-10T09:00:40.943Z,0.40
2022-10-10T09:03:21.142Z,0.45
2022-10-10T09:06:07.211Z,0.30
2022-10-10T09:08:44.511Z,0.40
2022-10-10T09:11:26.691Z,0.40
2022-10-10T09:14:03.808Z,0.30
2022-10-10T09:16:41.022Z,0.40
2022-10-10T09:19:24.568Z,0.30
2022-10-10T09:21:56.610Z,0.40
2022-10-10T09:24:27.555Z,0.40
2022-10-10T09:26:59.800Z,0.30
2022-10-10T09:29:33.077Z,0.40
2022-10-10T09:32:09.946Z,0.28
2022-10-10T09:34:42.380Z,0.30
2022-10-10T09:37:24.285Z,0.35
2022-10-10T09:40:09.915Z,0.35
2022-10-10T09:42:39.706Z,0.35
2022-10-10T09:45:18.075Z,0.30
2022-10-10T09:47:45.746Z,0.40
2022-10-10T09:50:16.984Z,0.45
2022-10-10T09:52:46.031Z,0.50
2022-10-10T09:55:24.534Z,0.40
2022-10-10T09:57:54.179Z,0.50
2022-10-10T10:00:33.762Z,0.60
2022-10-10T10:03:07.452Z,0.70
2022-10-10T10:05:36.486Z,0.70
2022-10-10T10:08:04.054Z,0.50
2022-10-10T10:10:36.375Z,0.60
2022-10-10T10:13:03.919Z,0.50
2022-10-10T10:15:33.117Z,0.50
2022-10-10T10:18:13.965Z,0.60
2022-10-10T10:20:45.084Z,0.60
2022-10-10T10:23:24.782Z,0.60
2022-10-10T10:26:00.219Z,0.60
2022-10-10T10:28:28.696Z,0.50
2022-10-10T10:30:58.251Z,0.60
2022-10-10T10:33:38.841Z,0.65
2022-10-10T10:36:16.201Z,0.60
2022-10-10T10:38:49.388Z,0.73
2022-10-10T10:41:28.197Z,0.60
2022-10-10T10:44:09.544Z,0.60
2022-10-10T10:46:51.031Z,0.50
2022-10-10T10:49:25.635Z,0.50
2022-10-10T10:52:22.184Z,0.50
2022-10-10T10:55:05.173Z,0.52
2022-10-10T10:58:04.758Z,0.70
2022-10-10T11:01:23.703Z,0.60
2022-10-10T11:05:18.962Z,0.50
2022-10-10T11:07:16.787Z,0.50
2022-10-10T11:09:50.041Z,0.60
2022-10-10T11:12:24.842Z,0.50
2022-10-10T11:17:27.501Z,0.50
2022-10-10T11:20:03.209Z,0.60
2022-10-10T11:22:36.411Z,0.50
2022-10-10T11:25:14.531Z,0.40
2022-10-10T11:27:46.852Z,0.50
2022-10-10T11:30:17.841Z,0.75
2022-10-10T11:32:54.330Z,0.60
2022-10-10T11:35:35.818Z,0.60
2022-10-10T11:38:12.671Z,0.60
2022-10-10T11:40:52.516Z,0.60
2022-10-10T11:43:28.272Z,0.50
2022-10-10T11:46:05.513Z,0.60
2022-10-10T11:48:42.910Z,0.60
2022-10-10T11:51:23.804Z,0.60
2022-10-10T11:53:54.671Z,0.60
2022-10-10T11:56:29.650Z,0.70
2022-10-10T11:59:01.391Z,0.60
2022-10-10T12:01:32.516Z,0.50
2022-10-10T12:03:59.971Z,0.55
2022-10-10T12:06:33.348Z,0.50
2022-10-10T12:09:04.849Z,0.50
2022-10-10T12:11:41.610Z,0.57
2022-10-10T12:14:14.672Z,0.50
2022-10-10T12:16:42.397Z,0.50
2022-10-10T12:19:18.528Z,0.60
2022-10-10T12:21:58.093Z,0.50
2022-10-10T12:24:26.995Z,0.60
2022-10-10T12:27:27.478Z,0.65
2022-10-10T12:30:21.922Z,0.40
2022-10-10T12:32:52.827Z,0.40
2022-10-10T12:35:44.389Z,0.50
2022-10-10T12:38:17.798Z,0.40
2022-10-10T12:41:13.490Z,0.57
2022-10-10T12:43:45.545Z,0.50
2022-10-10T12:46:20.842Z,0.50
2022-10-10T12:48:59.733Z,0.50
2022-10-10T12:51:28.914Z,0.40
2022-10-10T12:54:00.908Z,0.50
2022-10-10T12:56:38.336Z,0.50
2022-10-10T12:59:17.386Z,0.50
2022-10-10T13:01:47.865Z,0.43
2022-10-10T13:04:17.725Z,0.50
2022-10-10T13:06:47.050Z,0.52
2022-10-10T13:09:20.056Z,0.50
2022-10-10T13:11:53.770Z,0.47
2022-10-10T13:14:23.602Z,0.60
2022-10-10T13:16:51.096Z,0.60
2022-10-10T13:19:21.513Z,0.50
2022-10-10T13:21:51.383Z,0.57
2022-10-10T13:24:22.091Z,0.50
2022-10-10T13:26:51.605Z,0.55
2022-10-10T13:29:28.105Z,0.60
2022-10-10T13:32:00.754Z,0.60
2022-10-10T13:34:31.952Z,0.60
2022-10-10T13:37:02.661Z,0.50
2022-10-10T13:39:31.876Z,0.50
2022-10-10T13:42:00.873Z,0.60
2022-10-10T13:44:47.595Z,0.68
2022-10-10T13:47:52.214Z,0.60
2022-10-10T13:50:23.078Z,0.70
2022-10-10T13:52:50.571Z,0.60
2022-10-10T13:55:25.775Z,0.60
2022-10-10T13:57:57.178Z,0.60
2022-10-10T14:00:32.633Z,0.50
2022-10-10T14:03:00.179Z,0.50
2022-10-10T14:05:33.130Z,0.57
2022-10-10T14:08:00.820Z,0.50
2022-10-10T14:10:32.588Z,0.60
2022-10-10T14:13:01.858Z,0.60
2022-10-10T14:15:37.672Z,0.70
2022-10-10T14:18:16.871Z,0.50
2022-10-10T14:20:44.725Z,0.60
2022-10-10T14:23:12.774Z,0.50
2022-10-10T14:25:41.396Z,0.50
2022-10-10T14:28:16.246Z,0.60
2022-10-10T14:30:45.172Z,0.50
2022-10-10T14:33:13.978Z,0.50
2022-10-10T14:35:42.594Z,0.60
2022-10-10T14:38:12.971Z,0.60
2022-10-10T14:40:42.463Z,0.57
2022-10-10T14:43:09.972Z,0.57
2022-10-10T14:45:37.443Z,0.52
2022-10-10T14:48:06.951Z,0.60
2022-10-10T14:50:36.849Z,0.60
2022-10-10T14:53:08.612Z,0.60
2022-10-10T14:55:36.068Z,0.70
2022-10-10T14:58:03.558Z,0.70
2022-10-10T15:00:31.277Z,0.80
2022-10-10T15:02:58.790Z,0.60
2022-10-10T15:05:27.659Z,0.68
2022-10-10T15:07:55.366Z,0.60
2022-10-10T15:10:38.102Z,0.70
2022-10-10T15:13:05.587Z,0.60
2022-10-10T15:15:33.064Z,0.63
2022-10-10T15:18:01.019Z,0.70
2022-10-10T15:20:31.693Z,0.60
2022-10-10T15:22:59.946Z,0.60
2022-10-10T15:25:33.334Z,0.60
2022-10-10T15:28:03.190Z,0.63
2022-10-10T15:30:31.123Z,0.60
2022-10-10T15:32:58.626Z,0.60
2022-10-10T15:35:28.423Z,0.60
2022-10-10T15:38:05.062Z,0.60
2022-10-10T15:40:32.873Z,0.50
2022-10-10T15:43:00.586Z,0.57
2022-10-10T15:45:54.337Z,0.60
2022-10-10T15:48:15.517Z,0.60
2022-10-10T15:50:43.138Z,0.68
2022-10-10T15:53:12.235Z,0.57
2022-10-10T15:55:42.552Z,0.50
2022-10-10T15:58:10.017Z,0.70
2022-10-10T16:00:38.520Z,0.70
2022-10-10T16:03:06.219Z,0.70
2022-10-10T16:05:37.597Z,0.80
2022-10-10T16:08:05.562Z,0.85
2022-10-10T16:10:39.465Z,0.88
2022-10-10T16:13:07.468Z,0.90
2022-10-10T16:15:35.102Z,0.88
2022-10-10T16:18:02.897Z,0.90
2022-10-10T16:20:30.339Z,1.05
2022-10-10T16:22:57.894Z,1.00
2022-10-10T16:25:25.421Z,0.80
2022-10-10T16:27:54.252Z,0.98
2022-10-10T16:30:21.919Z,0.82
2022-10-10T16:32:49.485Z,0.93
2022-10-10T16:35:17.009Z,0.85
2022-10-10T16:37:44.458Z,0.90
2022-10-10T16:40:12.589Z,0.90
2022-10-10T16:42:40.090Z,0.80
2022-10-10T16:45:11.088Z,0.70
2022-10-10T16:47:38.950Z,0.73
2022-10-10T16:50:08.289Z,0.60
2022-10-10T16:52:38.157Z,0.50
2022-10-10T16:55:06.859Z,0.50
2022-10-10T16:57:34.890Z,0.40
2022-10-10T17:00:02.828Z,0.47
2022-10-10T17:02:31.623Z,0.40
2022-10-10T17:04:59.116Z,0.50
2022-10-10T17:07:26.612Z,0.55
2022-10-10T17:09:54.248Z,0.50
2022-10-10T17:12:21.711Z,0.50
2022-10-10T17:14:50.042Z,0.50
2022-10-10T17:17:19.262Z,0.60
2022-10-10T17:19:49.411Z,0.50
2022-10-10T17:22:17.356Z,0.57
2022-10-10T17:24:44.876Z,0.60
2022-10-10T17:27:15.473Z,0.60
2022-10-10T17:29:42.989Z,0.50
2022-10-10T17:32:10.454Z,0.50
2022-10-10T17:34:38.091Z,0.40
2022-10-10T17:37:06.908Z,0.50
2022-10-10T17:39:34.465Z,0.45
2022-10-10T17:42:02.051Z,0.50
2022-10-10T17:44:29.554Z,0.50
2022-10-10T17:46:57.411Z,0.50
2022-10-10T17:49:24.937Z,0.50
2022-10-10T17:51:52.460Z,0.60
2022-10-10T17:54:21.828Z,0.60
2022-10-10T17:56:49.304Z,0.65
2022-10-10T17:59:16.816Z,0.75
2022-10-10T18:01:44.303Z,0.80
2022-10-10T18:04:15.197Z,0.80
2022-10-10T18:06:42.697Z,0.52
2022-10-10T18:09:10.542Z,0.50
2022-10-10T18:11:39.527Z,0.60
2022-10-10T18:14:07.024Z,0.50
2022-10-10T18:16:35.398Z,0.40
2022-10-10T18:19:04.555Z,0.40
2022-10-10T18:21:32.482Z,0.50
2022-10-10T18:24:00.885Z,0.50
2022-10-10T18:26:30.293Z,0.50
2022-10-10T18:28:59.566Z,0.52
2022-10-10T18:31:29.732Z,0.40
2022-10-10T18:33:57.809Z,0.50
2022-10-10T18:36:27.864Z,0.50
2022-10-10T18:38:58.306Z,0.40
2022-10-10T18:41:27.885Z,0.40
2022-10-10T18:43:57.374Z,0.50
2022-10-10T18:46:26.198Z,0.40
2022-10-10T18:48:54.449Z,0.50
2022-10-10T18:51:24.146Z,0.55
2022-10-10T18:53:53.359Z,0.70
2022-10-10T18:56:24.356Z,0.70
2022-10-10T18:58:54.838Z,0.65
2022-10-10T19:01:25.124Z,0.80
2022-10-10T19:03:55.144Z,0.77
2022-10-10T19:06:24.242Z,0.63
2022-10-10T19:08:52.678Z,0.60
2022-10-10T19:11:22.202Z,0.60
2022-10-10T19:13:50.081Z,0.40
2022-10-10T19:16:18.272Z,0.60
2022-10-10T19:18:46.175Z,0.50
2022-10-10T19:21:16.054Z,0.50
2022-10-10T19:23:47.718Z,0.57
2022-10-10T19:26:16.947Z,0.60
2022-10-10T19:28:44.814Z,0.45
2022-10-10T19:31:14.966Z,0.43
2022-10-10T19:33:43.464Z,0.52
2022-10-10T19:36:12.709Z,1.17
2022-10-10T19:38:42.936Z,0.50
2022-10-10T19:41:13.539Z,0.50
2022-10-10T19:43:41.354Z,0.50
2022-10-10T19:46:16.328Z,0.50
2022-10-10T19:48:44.156Z,0.52
2022-10-10T19:51:13.999Z,0.50
2022-10-10T19:53:43.704Z,0.50
2022-10-10T19:56:13.276Z,0.60
2022-10-10T19:58:41.808Z,0.50
2022-10-10T20:01:10.324Z,0.50
2022-10-10T20:03:37.888Z,0.52
2022-10-10T20:06:07.183Z,0.45
2022-10-10T20:08:35.767Z,0.60
2022-10-10T20:11:05.033Z,0.50
2022-10-10T20:13:34.571Z,0.52
2022-10-10T20:16:05.210Z,0.50
2022-10-10T20:18:34.567Z,0.50
2022-10-10T20:21:07.490Z,0.50
2022-10-10T20:23:35.083Z,0.60
2022-10-10T20:26:09.821Z,0.40
2022-10-10T20:28:37.659Z,0.50
2022-10-10T20:31:05.489Z,0.50
2022-10-10T20:33:34.307Z,0.50
2022-10-10T20:36:03.179Z,0.65
2022-10-10T20:38:30.994Z,0.50
2022-10-10T20:40:58.488Z,0.50
2022-10-10T20:43:30.664Z,0.50
2022-10-10T20:45:58.151Z,0.50
2022-10-10T20:48:25.620Z,0.40
2022-10-10T20:50:53.082Z,0.50
2022-10-10T20:53:20.519Z,0.45
2022-10-10T20:55:54.752Z,0.50
2022-10-10T20:58:22.238Z,0.50
2022-10-10T21:00:51.059Z,0.50
2022-10-10T21:03:18.544Z,0.50
2022-10-10T21:05:46.006Z,0.40
2022-10-10T21:08:13.607Z,0.50
2022-10-10T21:10:42.891Z,0.40
2022-10-10T21:13:10.559Z,0.50
2022-10-10T21:15:38.007Z,0.50
2022-10-10T21:18:07.027Z,0.50
2022-10-10T21:20:34.658Z,0.50
2022-10-10T21:23:05.307Z,0.50
2022-10-10T21:25:32.784Z,0.47
2022-10-10T21:28:00.388Z,0.47
2022-10-10T21:30:29.756Z,0.60
2022-10-10T21:32:57.282Z,0.55
2022-10-10T21:35:26.101Z,0.60
2022-10-10T21:37:53.564Z,0.60
2022-10-10T21:40:21.031Z,0.70
2022-10-10T21:42:48.526Z,0.63
2022-10-10T21:45:16.053Z,0.60
2022-10-10T21:47:43.484Z,0.57
2022-10-10T21:50:11.104Z,0.57
2022-10-10T21:52:39.916Z,0.50
2022-10-10T21:55:07.896Z,0.52
2022-10-10T21:57:36.018Z,0.60
2022-10-10T22:00:04.587Z,0.65
2022-10-10T22:02:32.033Z,0.68
2022-10-10T22:05:02.255Z,0.60
2022-10-10T22:07:29.702Z,0.60
2022-10-10T22:09:58.628Z,0.80
2022-10-10T22:12:26.192Z,0.70
2022-10-10T22:14:53.640Z,0.60
2022-10-10T22:17:24.490Z,0.70
2022-10-10T22:19:51.943Z,0.65
2022-10-10T22:22:19.755Z,0.70
2022-10-10T22:24:47.217Z,0.50
2022-10-10T22:27:16.237Z,0.50
2022-10-10T22:29:44.209Z,0.40
2022-10-10T22:32:11.653Z,0.50
2022-10-10T22:34:39.262Z,0.60
2022-10-10T22:37:06.726Z,0.50
2022-10-10T22:39:34.185Z,0.57
2022-10-10T22:42:01.671Z,0.50
2022-10-10T22:44:30.454Z,0.50
2022-10-10T22:46:58.350Z,0.40
2022-10-10T22:49:26.142Z,0.40
2022-10-10T22:51:53.628Z,0.50
2022-10-10T22:54:21.135Z,0.60
2022-10-10T22:56:48.992Z,0.50
2022-10-10T22:59:16.430Z,0.50
2022-10-10T23:01:45.479Z,0.60
2022-10-10T23:04:13.408Z,0.65
2022-10-10T23:06:41.580Z,0.50
2022-10-10T23:09:09.433Z,0.50
2022-10-10T23:11:37.215Z,0.50
2022-10-10T23:14:05.212Z,0.60
2022-10-10T23:16:33.060Z,0.55
2022-10-10T23:19:01.858Z,0.57
2022-10-10T23:21:29.325Z,0.57
2022-10-10T23:23:56.777Z,0.57
2022-10-10T23:26:24.273Z,0.50
2022-10-10T23:28:51.981Z,0.68
2022-10-10T23:31:19.508Z,0.50
2022-10-10T23:33:46.967Z,0.60
2022-10-10T23:36:16.122Z,0.50
2022-10-10T23:38:44.050Z,0.50
2022-10-10T23:41:12.379Z,0.52
2022-10-10T23:43:39.870Z,0.60
2022-10-10T23:46:08.090Z,0.60
2022-10-10T23:48:36.773Z,0.60
2022-10-10T23:51:05.073Z,0.50
2022-10-10T23:53:34.519Z,0.50
2022-10-10T23:56:02.274Z,0.60
2022-10-10T23:58:30.087Z,0.50
